sensor_id;sensor_type;location;lat;lon;timestamp;pressure;altitude;pressure_sealevel;temperature;humidity
25080;BME280;13071;48.868;9.996;2023-04-01T00:01:48;95166.44;;;8.39;85.31
25080;BME280;13071;48.868;9.996;2023-04-01T00:04:15;95166.50;;;8.27;85.62
25080;BME280;13071;48.868;9.996;2023-04-01T00:06:42;95172.19;;;8.37;85.82
25080;BME280;13071;48.868;9.996;2023-04-01T00:09:11;95167.41;;;8.31;85.70
25080;BME280;13071;48.868;9.996;2023-04-01T00:11:37;95167.84;;;8.17;86.29
25080;BME280;13071;48.868;9.996;2023-04-01T00:14:05;95162.78;;;8.15;86.07
25080;BME280;13071;48.868;9.996;2023-04-01T00:16:31;95161.31;;;8.18;86.17
25080;BME280;13071;48.868;9.996;2023-04-01T00:18:58;95159.31;;;8.31;85.85
25080;BME280;13071;48.868;9.996;2023-04-01T00:21:26;95144.50;;;8.24;86.56
25080;BME280;13071;48.868;9.996;2023-04-01T00:23:52;95156.19;;;8.29;86.61
25080;BME280;13071;48.868;9.996;2023-04-01T00:26:21;95155.16;;;8.17;86.75
25080;BME280;13071;48.868;9.996;2023-04-01T00:28:47;95154.03;;;8.18;86.92
25080;BME280;13071;48.868;9.996;2023-04-01T00:31:14;95156.34;;;8.20;87.02
25080;BME280;13071;48.868;9.996;2023-04-01T00:33:41;95159.47;;;8.22;86.94
25080;BME280;13071;48.868;9.996;2023-04-01T00:36:09;95153.31;;;8.21;87.11
25080;BME280;13071;48.868;9.996;2023-04-01T00:38:37;95155.16;;;8.17;87.64
25080;BME280;13071;48.868;9.996;2023-04-01T00:41:04;95149.50;;;8.22;87.82
25080;BME280;13071;48.868;9.996;2023-04-01T00:43:33;95149.31;;;8.15;88.52
25080;BME280;13071;48.868;9.996;2023-04-01T00:46:00;95150.63;;;8.21;87.87
25080;BME280;13071;48.868;9.996;2023-04-01T00:48:29;95154.09;;;8.22;88.64
25080;BME280;13071;48.868;9.996;2023-04-01T00:50:59;95147.75;;;8.14;88.32
25080;BME280;13071;48.868;9.996;2023-04-01T00:53:28;95153.31;;;8.21;88.10
25080;BME280;13071;48.868;9.996;2023-04-01T00:55:59;95151.41;;;8.22;88.30
25080;BME280;13071;48.868;9.996;2023-04-01T00:58:29;95151.75;;;8.36;87.86
25080;BME280;13071;48.868;9.996;2023-04-01T01:00:59;95153.25;;;8.34;87.33
25080;BME280;13071;48.868;9.996;2023-04-01T01:03:26;95153.16;;;8.30;87.86
25080;BME280;13071;48.868;9.996;2023-04-01T01:06:10;95143.16;;;8.31;87.65
25080;BME280;13071;48.868;9.996;2023-04-01T01:08:52;95150.44;;;8.30;87.72
25080;BME280;13071;48.868;9.996;2023-04-01T01:11:30;95151.03;;;8.39;87.17
25080;BME280;13071;48.868;9.996;2023-04-01T01:14:07;95138.00;;;8.25;87.28
25080;BME280;13071;48.868;9.996;2023-04-01T01:16:43;95151.13;;;8.27;87.87
25080;BME280;13071;48.868;9.996;2023-04-01T01:19:19;95147.41;;;8.32;87.68
25080;BME280;13071;48.868;9.996;2023-04-01T01:22:05;95138.34;;;8.24;87.77
25080;BME280;13071;48.868;9.996;2023-04-01T01:24:56;95154.44;;;8.20;87.28
25080;BME280;13071;48.868;9.996;2023-04-01T01:27:32;95151.59;;;8.13;87.14
25080;BME280;13071;48.868;9.996;2023-04-01T01:33:15;95153.03;;;8.27;86.81
25080;BME280;13071;48.868;9.996;2023-04-01T01:35:48;95146.16;;;8.29;86.87
25080;BME280;13071;48.868;9.996;2023-04-01T01:38:17;95145.16;;;8.34;86.79
25080;BME280;13071;48.868;9.996;2023-04-01T01:40:47;95144.00;;;8.19;88.15
25080;BME280;13071;48.868;9.996;2023-04-01T01:43:20;95143.84;;;8.12;89.10
25080;BME280;13071;48.868;9.996;2023-04-01T01:45:50;95142.19;;;8.23;89.12
25080;BME280;13071;48.868;9.996;2023-04-01T01:48:19;95139.59;;;8.11;89.13
25080;BME280;13071;48.868;9.996;2023-04-01T01:50:48;95144.19;;;8.10;89.54
25080;BME280;13071;48.868;9.996;2023-04-01T01:53:15;95138.28;;;8.05;90.50
25080;BME280;13071;48.868;9.996;2023-04-01T01:55:43;95140.03;;;7.97;91.70
25080;BME280;13071;48.868;9.996;2023-04-01T01:58:13;95137.94;;;7.91;92.54
25080;BME280;13071;48.868;9.996;2023-04-01T02:00:43;95131.25;;;7.85;93.02
25080;BME280;13071;48.868;9.996;2023-04-01T02:03:12;95136.63;;;8.00;92.60
25080;BME280;13071;48.868;9.996;2023-04-01T02:05:40;95132.66;;;7.94;92.34
25080;BME280;13071;48.868;9.996;2023-04-01T02:08:11;95135.84;;;8.00;92.24
25080;BME280;13071;48.868;9.996;2023-04-01T02:10:41;95130.22;;;7.73;93.17
25080;BME280;13071;48.868;9.996;2023-04-01T02:13:14;95139.31;;;8.00;92.24
25080;BME280;13071;48.868;9.996;2023-04-01T02:15:46;95136.56;;;7.97;91.84
25080;BME280;13071;48.868;9.996;2023-04-01T02:18:14;95140.81;;;7.82;91.88
25080;BME280;13071;48.868;9.996;2023-04-01T02:20:42;95138.06;;;7.94;92.23
25080;BME280;13071;48.868;9.996;2023-04-01T02:23:12;95147.34;;;7.97;91.90
25080;BME280;13071;48.868;9.996;2023-04-01T02:25:40;95144.81;;;7.88;93.22
25080;BME280;13071;48.868;9.996;2023-04-01T02:28:09;95145.69;;;7.92;92.66
25080;BME280;13071;48.868;9.996;2023-04-01T02:30:38;95141.34;;;7.88;94.10
25080;BME280;13071;48.868;9.996;2023-04-01T02:33:06;95146.13;;;7.78;96.00
25080;BME280;13071;48.868;9.996;2023-04-01T02:35:34;95146.78;;;7.60;97.01
25080;BME280;13071;48.868;9.996;2023-04-01T02:38:02;95153.94;;;7.68;97.35
25080;BME280;13071;48.868;9.996;2023-04-01T02:40:41;95154.44;;;7.58;96.92
25080;BME280;13071;48.868;9.996;2023-04-01T02:43:07;95144.22;;;7.63;97.29
25080;BME280;13071;48.868;9.996;2023-04-01T02:45:34;95151.41;;;7.59;97.31
25080;BME280;13071;48.868;9.996;2023-04-01T02:48:01;95153.38;;;7.47;96.74
25080;BME280;13071;48.868;9.996;2023-04-01T02:50:27;95156.03;;;7.59;96.88
25080;BME280;13071;48.868;9.996;2023-04-01T02:52:54;95152.25;;;7.48;96.69
25080;BME280;13071;48.868;9.996;2023-04-01T02:55:21;95152.09;;;7.56;96.62
25080;BME280;13071;48.868;9.996;2023-04-01T02:57:49;95149.03;;;7.42;95.83
25080;BME280;13071;48.868;9.996;2023-04-01T03:00:16;95158.19;;;7.53;95.61
25080;BME280;13071;48.868;9.996;2023-04-01T03:02:43;95156.69;;;7.56;95.43
25080;BME280;13071;48.868;9.996;2023-04-01T03:05:10;95157.44;;;7.41;96.04
25080;BME280;13071;48.868;9.996;2023-04-01T03:07:37;95159.22;;;7.49;95.25
25080;BME280;13071;48.868;9.996;2023-04-01T03:10:05;95167.63;;;7.47;95.78
25080;BME280;13071;48.868;9.996;2023-04-01T03:12:32;95171.09;;;7.48;95.54
25080;BME280;13071;48.868;9.996;2023-04-01T03:15:00;95156.41;;;7.45;95.37
25080;BME280;13071;48.868;9.996;2023-04-01T03:17:26;95163.91;;;7.52;94.79
25080;BME280;13071;48.868;9.996;2023-04-01T03:19:53;95161.97;;;7.36;94.62
25080;BME280;13071;48.868;9.996;2023-04-01T03:22:20;95161.28;;;7.40;95.08
25080;BME280;13071;48.868;9.996;2023-04-01T03:24:46;95165.38;;;7.49;93.96
25080;BME280;13071;48.868;9.996;2023-04-01T03:27:13;95153.97;;;7.40;94.21
25080;BME280;13071;48.868;9.996;2023-04-01T03:29:40;95161.47;;;7.47;93.24
25080;BME280;13071;48.868;9.996;2023-04-01T03:32:08;95163.47;;;7.50;93.75
25080;BME280;13071;48.868;9.996;2023-04-01T03:34:35;95162.44;;;7.54;92.66
25080;BME280;13071;48.868;9.996;2023-04-01T03:37:01;95155.00;;;7.35;92.55
25080;BME280;13071;48.868;9.996;2023-04-01T03:39:28;95150.28;;;7.45;93.04
25080;BME280;13071;48.868;9.996;2023-04-01T03:41:55;95158.72;;;7.31;92.06
25080;BME280;13071;48.868;9.996;2023-04-01T03:44:21;95166.41;;;7.45;92.23
25080;BME280;13071;48.868;9.996;2023-04-01T03:46:48;95168.50;;;7.51;91.33
25080;BME280;13071;48.868;9.996;2023-04-01T03:49:16;95165.47;;;7.53;91.16
25080;BME280;13071;48.868;9.996;2023-04-01T03:51:43;95167.09;;;7.42;90.90
25080;BME280;13071;48.868;9.996;2023-04-01T03:54:10;95168.56;;;7.39;91.83
25080;BME280;13071;48.868;9.996;2023-04-01T03:56:37;95166.16;;;7.50;91.21
25080;BME280;13071;48.868;9.996;2023-04-01T03:59:05;95173.34;;;7.46;91.67
25080;BME280;13071;48.868;9.996;2023-04-01T04:01:32;95174.75;;;7.40;91.68
25080;BME280;13071;48.868;9.996;2023-04-01T04:03:59;95162.03;;;7.40;91.61
25080;BME280;13071;48.868;9.996;2023-04-01T04:06:27;95162.69;;;7.49;90.76
25080;BME280;13071;48.868;9.996;2023-04-01T04:08:54;95164.41;;;7.42;90.39
25080;BME280;13071;48.868;9.996;2023-04-01T04:11:21;95158.16;;;7.37;89.96
25080;BME280;13071;48.868;9.996;2023-04-01T04:13:48;95169.94;;;7.33;90.48
25080;BME280;13071;48.868;9.996;2023-04-01T04:16:15;95158.59;;;7.40;90.06
25080;BME280;13071;48.868;9.996;2023-04-01T04:18:42;95161.41;;;7.31;89.73
25080;BME280;13071;48.868;9.996;2023-04-01T04:21:12;95161.41;;;7.31;89.73
25080;BME280;13071;48.868;9.996;2023-04-01T04:23:41;95152.75;;;7.37;90.02
25080;BME280;13071;48.868;9.996;2023-04-01T04:26:10;95159.28;;;7.36;89.78
25080;BME280;13071;48.868;9.996;2023-04-01T04:28:37;95152.75;;;7.37;89.83
25080;BME280;13071;48.868;9.996;2023-04-01T04:31:04;95147.34;;;7.22;89.44
25080;BME280;13071;48.868;9.996;2023-04-01T04:33:31;95154.28;;;7.23;89.45
25080;BME280;13071;48.868;9.996;2023-04-01T04:35:59;95149.25;;;7.21;89.26
25080;BME280;13071;48.868;9.996;2023-04-01T04:38:26;95153.66;;;7.14;88.54
25080;BME280;13071;48.868;9.996;2023-04-01T04:40:54;95163.72;;;7.17;88.72
25080;BME280;13071;48.868;9.996;2023-04-01T04:43:22;95167.84;;;6.99;89.26
25080;BME280;13071;48.868;9.996;2023-04-01T04:45:48;95166.91;;;7.07;89.31
25080;BME280;13071;48.868;9.996;2023-04-01T04:48:16;95156.78;;;7.16;88.77
25080;BME280;13071;48.868;9.996;2023-04-01T04:50:46;95163.56;;;7.10;88.38
25080;BME280;13071;48.868;9.996;2023-04-01T04:53:13;95160.88;;;7.10;88.60
25080;BME280;13071;48.868;9.996;2023-04-01T04:55:42;95165.59;;;7.28;88.43
25080;BME280;13071;48.868;9.996;2023-04-01T04:58:12;95165.63;;;7.16;88.63
25080;BME280;13071;48.868;9.996;2023-04-01T05:00:39;95173.88;;;7.08;89.13
25080;BME280;13071;48.868;9.996;2023-04-01T05:03:06;95163.56;;;7.25;89.03
25080;BME280;13071;48.868;9.996;2023-04-01T05:05:33;95163.25;;;7.27;88.58
25080;BME280;13071;48.868;9.996;2023-04-01T05:08:00;95168.91;;;7.37;88.38
25080;BME280;13071;48.868;9.996;2023-04-01T05:10:27;95163.16;;;7.23;88.73
25080;BME280;13071;48.868;9.996;2023-04-01T05:12:54;95163.25;;;7.27;88.33
25080;BME280;13071;48.868;9.996;2023-04-01T05:15:22;95172.59;;;7.17;88.33
25080;BME280;13071;48.868;9.996;2023-04-01T05:17:48;95179.38;;;7.27;89.19
25080;BME280;13071;48.868;9.996;2023-04-01T05:20:15;95163.25;;;7.27;89.12
25080;BME280;13071;48.868;9.996;2023-04-01T05:22:42;95173.09;;;7.35;89.17
25080;BME280;13071;48.868;9.996;2023-04-01T05:25:09;95173.66;;;7.28;88.54
25080;BME280;13071;48.868;9.996;2023-04-01T05:27:35;95165.94;;;7.27;88.13
25080;BME280;13071;48.868;9.996;2023-04-01T05:30:03;95168.91;;;7.37;88.55
25080;BME280;13071;48.868;9.996;2023-04-01T05:32:32;95169.38;;;7.55;88.16
25080;BME280;13071;48.868;9.996;2023-04-01T05:34:58;95163.03;;;7.48;88.38
25080;BME280;13071;48.868;9.996;2023-04-01T05:37:25;95172.84;;;7.56;87.52
25080;BME280;13071;48.868;9.996;2023-04-01T05:39:51;95159.31;;;7.52;87.84
25080;BME280;13071;48.868;9.996;2023-04-01T05:42:18;95169.63;;;7.66;87.57
25080;BME280;13071;48.868;9.996;2023-04-01T05:44:44;95165.81;;;7.67;87.43
25080;BME280;13071;48.868;9.996;2023-04-01T05:47:11;95155.75;;;7.64;87.11
25080;BME280;13071;48.868;9.996;2023-04-01T05:49:39;95160.69;;;7.62;87.10
25080;BME280;13071;48.868;9.996;2023-04-01T05:52:05;95157.41;;;7.68;87.59
25080;BME280;13071;48.868;9.996;2023-04-01T05:54:33;95159.56;;;7.63;86.96
25080;BME280;13071;48.868;9.996;2023-04-01T05:56:59;95157.56;;;7.75;87.30
25080;BME280;13071;48.868;9.996;2023-04-01T05:59:26;95153.84;;;7.80;87.10
25080;BME280;13071;48.868;9.996;2023-04-01T06:01:52;95145.69;;;7.92;86.93
25080;BME280;13071;48.868;9.996;2023-04-01T06:04:19;95147.78;;;7.83;86.84
25080;BME280;13071;48.868;9.996;2023-04-01T06:06:47;95148.13;;;7.97;86.51
25080;BME280;13071;48.868;9.996;2023-04-01T06:09:17;95155.41;;;7.97;85.68
25080;BME280;13071;48.868;9.996;2023-04-01T06:11:55;95157.50;;;8.03;86.01
25080;BME280;13071;48.868;9.996;2023-04-01T06:14:32;95164.88;;;8.06;86.68
25080;BME280;13071;48.868;9.996;2023-04-01T06:17:15;95169.06;;;8.04;85.59
25080;BME280;13071;48.868;9.996;2023-04-01T06:19:49;95164.88;;;8.22;84.76
25080;BME280;13071;48.868;9.996;2023-04-01T06:22:39;95171.56;;;8.12;84.62
25080;BME280;13071;48.868;9.996;2023-04-01T06:25:28;95162.44;;;8.17;84.35
25080;BME280;13071;48.868;9.996;2023-04-01T06:28:06;95167.22;;;8.23;84.37
25080;BME280;13071;48.868;9.996;2023-04-01T06:30:40;95167.84;;;8.33;83.96
25080;BME280;13071;48.868;9.996;2023-04-01T06:33:30;95161.13;;;8.42;83.63
25080;BME280;13071;48.868;9.996;2023-04-01T06:36:26;95165.75;;;8.42;83.55
25080;BME280;13071;48.868;9.996;2023-04-01T06:39:11;95157.44;;;8.50;82.78
25080;BME280;13071;48.868;9.996;2023-04-01T06:42:04;95158.69;;;8.53;81.79
25080;BME280;13071;48.868;9.996;2023-04-01T06:44:40;95151.22;;;8.46;81.30
25080;BME280;13071;48.868;9.996;2023-04-01T06:47:19;95154.69;;;8.47;81.70
25080;BME280;13071;48.868;9.996;2023-04-01T06:49:56;95155.34;;;8.59;80.85
25080;BME280;13071;48.868;9.996;2023-04-01T06:52:37;95146.59;;;8.47;80.52
25080;BME280;13071;48.868;9.996;2023-04-01T06:55:24;95146.13;;;8.60;81.87
25080;BME280;13071;48.868;9.996;2023-04-01T06:57:54;95144.44;;;8.72;80.98
25080;BME280;13071;48.868;9.996;2023-04-01T07:00:27;95141.47;;;8.77;80.19
25080;BME280;13071;48.868;9.996;2023-04-01T07:03:02;95136.84;;;8.77;80.32
25080;BME280;13071;48.868;9.996;2023-04-01T07:05:32;95138.06;;;8.80;80.01
25080;BME280;13071;48.868;9.996;2023-04-01T07:08:02;95130.66;;;8.57;80.25
25080;BME280;13071;48.868;9.996;2023-04-01T07:10:35;95138.59;;;8.50;80.26
25080;BME280;13071;48.868;9.996;2023-04-01T07:13:10;95136.41;;;8.75;80.20
25080;BME280;13071;48.868;9.996;2023-04-01T07:15:41;95134.06;;;8.74;79.91
25080;BME280;13071;48.868;9.996;2023-04-01T07:18:12;95131.75;;;8.72;79.57
25080;BME280;13071;48.868;9.996;2023-04-01T07:20:42;95132.44;;;8.69;80.07
25080;BME280;13071;48.868;9.996;2023-04-01T07:23:16;95136.13;;;8.80;80.61
25080;BME280;13071;48.868;9.996;2023-04-01T07:25:52;95140.69;;;8.76;80.21
25080;BME280;13071;48.868;9.996;2023-04-01T07:28:20;95131.75;;;8.91;79.26
25080;BME280;13071;48.868;9.996;2023-04-01T07:30:53;95138.50;;;8.82;79.28
25080;BME280;13071;48.868;9.996;2023-04-01T07:33:29;95140.47;;;9.04;79.16
25080;BME280;13071;48.868;9.996;2023-04-01T07:36:03;95140.34;;;9.16;79.31
25080;BME280;13071;48.868;9.996;2023-04-01T07:38:41;95136.41;;;9.14;78.87
25080;BME280;13071;48.868;9.996;2023-04-01T07:41:20;95134.38;;;9.07;78.80
25080;BME280;13071;48.868;9.996;2023-04-01T07:43:59;95145.66;;;9.13;79.60
25080;BME280;13071;48.868;9.996;2023-04-01T07:46:46;95150.69;;;9.14;78.87
25080;BME280;13071;48.868;9.996;2023-04-01T07:49:17;95148.63;;;9.27;79.42
25080;BME280;13071;48.868;9.996;2023-04-01T07:51:53;95144.09;;;9.12;79.46
25080;BME280;13071;48.868;9.996;2023-04-01T07:54:29;95141.69;;;9.26;79.62
25080;BME280;13071;48.868;9.996;2023-04-01T07:57:02;95152.69;;;9.17;79.18
25080;BME280;13071;48.868;9.996;2023-04-01T07:59:38;95143.16;;;9.23;79.03
25080;BME280;13071;48.868;9.996;2023-04-01T08:02:13;95146.63;;;9.24;78.84
25080;BME280;13071;48.868;9.996;2023-04-01T08:04:52;95150.34;;;9.16;79.91
25080;BME280;13071;48.868;9.996;2023-04-01T08:07:25;95150.97;;;9.28;80.12
25080;BME280;13071;48.868;9.996;2023-04-01T08:09:56;95150.63;;;9.30;80.22
25080;BME280;13071;48.868;9.996;2023-04-01T08:12:34;95151.72;;;9.48;81.01
25080;BME280;13071;48.868;9.996;2023-04-01T08:15:12;95146.56;;;9.39;81.38
25080;BME280;13071;48.868;9.996;2023-04-01T08:17:46;95146.28;;;9.25;80.35
25080;BME280;13071;48.868;9.996;2023-04-01T08:20:27;95150.28;;;9.31;80.88
25080;BME280;13071;48.868;9.996;2023-04-01T08:22:58;95156.56;;;9.39;81.74
25080;BME280;13071;48.868;9.996;2023-04-01T08:25:28;95149.41;;;9.46;81.18
25080;BME280;13071;48.868;9.996;2023-04-01T08:28:03;95145.44;;;9.63;81.76
25080;BME280;13071;48.868;9.996;2023-04-01T08:30:38;95157.22;;;9.74;81.66
25080;BME280;13071;48.868;9.996;2023-04-01T08:33:12;95151.75;;;9.71;81.44
25080;BME280;13071;48.868;9.996;2023-04-01T08:35:44;95149.53;;;9.76;81.40
25080;BME280;13071;48.868;9.996;2023-04-01T08:38:15;95142.81;;;9.67;81.86
25080;BME280;13071;48.868;9.996;2023-04-01T08:41:01;95152.69;;;9.59;81.14
25080;BME280;13071;48.868;9.996;2023-04-01T08:43:51;95150.78;;;9.60;81.82
25080;BME280;13071;48.868;9.996;2023-04-01T08:46:44;95137.16;;;9.52;82.13
25080;BME280;13071;48.868;9.996;2023-04-01T08:49:28;95154.63;;;9.59;82.37
25080;BME280;13071;48.868;9.996;2023-04-01T08:52:18;95148.09;;;9.60;81.72
25080;BME280;13071;48.868;9.996;2023-04-01T08:55:02;95147.03;;;9.45;81.87
25080;BME280;13071;48.868;9.996;2023-04-01T08:57:43;95157.25;;;9.32;84.78
25080;BME280;13071;48.868;9.996;2023-04-01T09:00:22;95147.47;;;9.28;83.10
25080;BME280;13071;48.868;9.996;2023-04-01T09:03:09;95154.88;;;9.31;84.54
25080;BME280;13071;48.868;9.996;2023-04-01T09:06:31;95156.38;;;9.09;85.00
25080;BME280;13071;48.868;9.996;2023-04-01T09:09:14;95157.16;;;9.09;86.75
25080;BME280;13071;48.868;9.996;2023-04-01T09:12:01;95149.78;;;9.06;86.14
25080;BME280;13071;48.868;9.996;2023-04-01T09:14:47;95162.28;;;8.95;86.08
25080;BME280;13071;48.868;9.996;2023-04-01T09:20:47;95157.22;;;8.94;88.44
25080;BME280;13071;48.868;9.996;2023-04-01T09:23:29;95155.03;;;9.19;88.65
25080;BME280;13071;48.868;9.996;2023-04-01T09:26:13;95163.69;;;9.28;86.70
25080;BME280;13071;48.868;9.996;2023-04-01T09:28:50;95169.66;;;9.37;87.36
25080;BME280;13071;48.868;9.996;2023-04-01T09:31:28;95167.66;;;9.34;88.10
25080;BME280;13071;48.868;9.996;2023-04-01T09:34:22;95171.63;;;9.40;87.65
25080;BME280;13071;48.868;9.996;2023-04-01T09:37:03;95170.50;;;9.41;88.38
25080;BME280;13071;48.868;9.996;2023-04-01T09:39:38;95176.03;;;9.29;86.13
25080;BME280;13071;48.868;9.996;2023-04-01T09:42:29;95182.94;;;9.07;86.57
25080;BME280;13071;48.868;9.996;2023-04-01T09:45:03;95181.44;;;8.90;88.80
25080;BME280;13071;48.868;9.996;2023-04-01T09:47:43;95176.50;;;9.12;89.86
25080;BME280;13071;48.868;9.996;2023-04-01T09:50:29;95191.44;;;8.90;90.90
25080;BME280;13071;48.868;9.996;2023-04-01T09:53:09;95186.91;;;8.94;90.40
25080;BME280;13071;48.868;9.996;2023-04-01T09:56:19;95189.47;;;8.87;91.43
25080;BME280;13071;48.868;9.996;2023-04-01T09:59:12;95177.25;;;8.93;92.11
25080;BME280;13071;48.868;9.996;2023-04-01T10:05:16;95188.53;;;8.98;92.14
25080;BME280;13071;48.868;9.996;2023-04-01T10:08:14;95184.34;;;9.01;93.83
25080;BME280;13071;48.868;9.996;2023-04-01T10:11:13;95173.84;;;8.96;94.09
25080;BME280;13071;48.868;9.996;2023-04-01T10:17:08;95172.78;;;9.00;94.02
25080;BME280;13071;48.868;9.996;2023-04-01T10:20:08;95169.31;;;9.19;94.88
25080;BME280;13071;48.868;9.996;2023-04-01T10:23:01;95174.34;;;9.21;93.22
25080;BME280;13071;48.868;9.996;2023-04-01T10:25:48;95171.16;;;9.15;92.87
25080;BME280;13071;48.868;9.996;2023-04-01T10:31:49;95175.91;;;9.41;92.58
25080;BME280;13071;48.868;9.996;2023-04-01T10:34:49;95168.78;;;9.33;92.40
25080;BME280;13071;48.868;9.996;2023-04-01T10:37:39;95181.59;;;9.17;92.56
25080;BME280;13071;48.868;9.996;2023-04-01T10:40:31;95181.03;;;9.27;92.49
25080;BME280;13071;48.868;9.996;2023-04-01T10:43:24;95183.91;;;9.37;92.90
25080;BME280;13071;48.868;9.996;2023-04-01T10:49:05;95172.75;;;9.58;94.13
25080;BME280;13071;48.868;9.996;2023-04-01T10:52:04;95183.78;;;9.49;93.66
25080;BME280;13071;48.868;9.996;2023-04-01T10:54:44;95178.56;;;9.60;94.36
25080;BME280;13071;48.868;9.996;2023-04-01T10:57:32;95166.56;;;9.58;92.59
25080;BME280;13071;48.868;9.996;2023-04-01T11:03:32;95182.66;;;9.31;93.85
25080;BME280;13071;48.868;9.996;2023-04-01T11:06:45;95177.25;;;9.31;94.26
25080;BME280;13071;48.868;9.996;2023-04-01T11:09:49;95177.88;;;9.44;95.02
25080;BME280;13071;48.868;9.996;2023-04-01T11:22:07;95175.44;;;9.58;95.09
25080;BME280;13071;48.868;9.996;2023-04-01T11:27:46;95189.13;;;9.46;96.61
25080;BME280;13071;48.868;9.996;2023-04-01T11:30:25;95191.59;;;9.35;94.53
25080;BME280;13071;48.868;9.996;2023-04-01T11:33:00;95188.56;;;9.37;95.26
25080;BME280;13071;48.868;9.996;2023-04-01T11:35:58;95197.78;;;9.17;95.19
25080;BME280;13071;48.868;9.996;2023-04-01T11:38:46;95190.59;;;9.24;95.60
25080;BME280;13071;48.868;9.996;2023-04-01T11:41:24;95197.41;;;9.37;96.58
25080;BME280;13071;48.868;9.996;2023-04-01T11:44:08;95199.44;;;9.21;95.68
25080;BME280;13071;48.868;9.996;2023-04-01T11:46:44;95211.63;;;9.15;95.77
25080;BME280;13071;48.868;9.996;2023-04-01T11:49:29;95203.47;;;9.31;95.88
25080;BME280;13071;48.868;9.996;2023-04-01T11:52:15;95205.97;;;9.20;94.94
25080;BME280;13071;48.868;9.996;2023-04-01T11:54:56;95208.88;;;9.31;96.16
25080;BME280;13071;48.868;9.996;2023-04-01T11:57:43;95212.28;;;9.47;97.57
25080;BME280;13071;48.868;9.996;2023-04-01T12:00:24;95214.28;;;9.31;95.06
25080;BME280;13071;48.868;9.996;2023-04-01T12:03:10;95213.72;;;9.41;97.29
25080;BME280;13071;48.868;9.996;2023-04-01T12:05:43;95218.09;;;9.10;97.18
25080;BME280;13071;48.868;9.996;2023-04-01T12:08:28;95211.34;;;9.59;97.59
25080;BME280;13071;48.868;9.996;2023-04-01T12:11:00;95216.03;;;9.42;96.07
25080;BME280;13071;48.868;9.996;2023-04-01T12:13:37;95215.47;;;9.52;96.51
25080;BME280;13071;48.868;9.996;2023-04-01T12:19:12;95213.97;;;9.55;95.46
25080;BME280;13071;48.868;9.996;2023-04-01T12:21:45;95218.31;;;9.60;95.92
25080;BME280;13071;48.868;9.996;2023-04-01T12:24:29;;;;9.53;
25080;BME280;13071;48.868;9.996;2023-04-01T12:27:29;95213.75;;;9.64;96.97
25080;BME280;13071;48.868;9.996;2023-04-01T12:32:56;95216.34;;;9.79;97.49
25080;BME280;13071;48.868;9.996;2023-04-01T12:35:37;95215.53;;;9.98;97.55
25080;BME280;13071;48.868;9.996;2023-04-01T12:38:19;95207.19;;;9.84;93.81
25080;BME280;13071;48.868;9.996;2023-04-01T12:40:57;95215.41;;;9.91;94.90
25080;BME280;13071;48.868;9.996;2023-04-01T12:46:45;95218.66;;;10.00;95.31
25080;BME280;13071;48.868;9.996;2023-04-01T12:49:34;95221.38;;;10.23;96.11
25080;BME280;13071;48.868;9.996;2023-04-01T12:52:10;95223.19;;;10.15;94.40
25080;BME280;13071;48.868;9.996;2023-04-01T13:06:52;95235.00;;;9.65;94.94
25080;BME280;13071;48.868;9.996;2023-04-01T13:09:34;95237.16;;;9.56;95.54
25080;BME280;13071;48.868;9.996;2023-04-01T13:12:23;95242.66;;;9.82;96.02
25080;BME280;13071;48.868;9.996;2023-04-01T13:15:12;95238.47;;;9.85;96.94
25080;BME280;13071;48.868;9.996;2023-04-01T13:17:45;95234.38;;;9.94;95.58
25080;BME280;13071;48.868;9.996;2023-04-01T13:20:16;95238.97;;;9.90;94.67
25080;BME280;13071;48.868;9.996;2023-04-01T13:23:00;95237.69;;;9.84;94.61
25080;BME280;13071;48.868;9.996;2023-04-01T13:25:36;95236.31;;;9.94;96.09
25080;BME280;13071;48.868;9.996;2023-04-01T13:28:11;95236.91;;;10.07;96.64
25080;BME280;13071;48.868;9.996;2023-04-01T13:30:48;95246.19;;;10.06;97.13
25080;BME280;13071;48.868;9.996;2023-04-01T13:33:21;95235.97;;;9.95;95.50
25080;BME280;13071;48.868;9.996;2023-04-01T13:35:59;95234.03;;;9.96;94.58
25080;BME280;13071;48.868;9.996;2023-04-01T13:41:59;95241.09;;;9.81;95.13
25080;BME280;13071;48.868;9.996;2023-04-01T13:44:32;95248.50;;;9.84;94.98
25080;BME280;13071;48.868;9.996;2023-04-01T13:47:20;95244.41;;;9.94;95.93
25080;BME280;13071;48.868;9.996;2023-04-01T13:50:15;95246.97;;;9.87;95.39
25080;BME280;13071;48.868;9.996;2023-04-01T13:53:00;95250.97;;;9.93;94.74
25080;BME280;13071;48.868;9.996;2023-04-01T13:55:43;95249.59;;;10.03;95.78
25080;BME280;13071;48.868;9.996;2023-04-01T13:58:33;95263.34;;;9.94;95.71
25080;BME280;13071;48.868;9.996;2023-04-01T14:01:09;95264.19;;;9.98;94.92
25080;BME280;13071;48.868;9.996;2023-04-01T14:03:48;95260.94;;;10.12;94.26
25080;BME280;13071;48.868;9.996;2023-04-01T14:06:28;95261.97;;;10.04;95.87
25080;BME280;13071;48.868;9.996;2023-04-01T14:09:23;95267.66;;;9.98;93.72
25080;BME280;13071;48.868;9.996;2023-04-01T14:11:58;95270.66;;;9.93;94.06
25080;BME280;13071;48.868;9.996;2023-04-01T14:14:36;95274.88;;;9.91;94.11
25080;BME280;13071;48.868;9.996;2023-04-01T14:17:38;95273.94;;;9.83;95.28
25080;BME280;13071;48.868;9.996;2023-04-01T14:20:25;95269.56;;;9.98;95.09
25080;BME280;13071;48.868;9.996;2023-04-01T14:23:05;95276.69;;;9.87;96.23
25080;BME280;13071;48.868;9.996;2023-04-01T14:25:51;95274.88;;;9.91;96.42
25080;BME280;13071;48.868;9.996;2023-04-01T14:28:26;95274.78;;;9.87;94.53
25080;BME280;13071;48.868;9.996;2023-04-01T14:31:08;95282.03;;;9.83;94.94
25080;BME280;13071;48.868;9.996;2023-04-01T14:33:46;95282.81;;;9.84;94.70
25080;BME280;13071;48.868;9.996;2023-04-01T14:36:32;95282.28;;;9.75;94.38
25080;BME280;13071;48.868;9.996;2023-04-01T14:39:09;95277.72;;;9.60;94.19
25080;BME280;13071;48.868;9.996;2023-04-01T14:41:46;95273.81;;;9.57;96.32
25080;BME280;13071;48.868;9.996;2023-04-01T14:44:22;95281.22;;;9.60;94.79
25080;BME280;13071;48.868;9.996;2023-04-01T14:49:51;95289.16;;;9.53;95.63
25080;BME280;13071;48.868;9.996;2023-04-01T14:52:27;95296.97;;;9.58;95.62
25080;BME280;13071;48.868;9.996;2023-04-01T14:54:56;95299.84;;;9.46;94.87
25080;BME280;13071;48.868;9.996;2023-04-01T14:57:24;95304.09;;;9.47;95.28